Agency, Iowa
Current Conditions -  °F | °C
As of 3:53 PM on Monday 26 Jan 2015 (Local Time) from KOTM Reporting Station
Clear Clear  
Wind Chill:   Ceiling: Unl
Heat Index:   Visibility: 10mi
Dew Point:   Wind: 15mph
Humidity: 64%   Direction: 310°NW
Pressure: 29.82"   Gusts: 25mph
Location:  41°N, 92.31°W
Report Text: KOTM 262153Z AUTO 31013G22KT 10SM CLR 09/03 A2982 RMK AO2 SLP105 T00940028
Loading
Personal Weather Stations






























Interactive Weather Map New forecast layout! Learn more

10-Day Weather Forecast

Advertisements
Track Severe Weather on mobile